Time;durP1;ratioP1;P1;durP2;ratioP2;P2;SDS_P1;SDS_P2;PMS_P1;PMS_P2;Temp;Humidity;BMP_temperature;BMP_pressure;BME280_temperature;BME280_humidity;BME280_pressure;Samples;Min_cycle;Max_cycle;Signal;HPM_P1;HPM_P2
2021/08/15 00:02:02;;;;;;;11.68;6.28;;;15.40;99.90;;;;;;5016120;28;20046;-84
2021/08/15 00:04:28;;;;;;;14.77;7.28;;;15.40;99.90;;;;;;5018102;28;20076;-84
2021/08/15 00:06:53;;;;;;;12.52;7.00;;;15.40;99.90;;;;;;5018408;28;20097;-82
2021/08/15 00:09:19;;;;;;;12.77;6.70;;;15.50;99.90;;;;;;5016893;28;20025;-84
2021/08/15 00:11:46;;;;;;;13.05;6.85;;;15.50;99.90;;;;;;5016986;28;20049;-85
2021/08/15 00:14:12;;;;;;;11.43;5.97;;;15.40;99.90;;;;;;5011674;28;20026;-84
2021/08/15 00:16:37;;;;;;;11.93;6.82;;;15.50;99.90;;;;;;5012763;28;20034;-84
2021/08/15 00:19:05;;;;;;;15.27;7.43;;;15.40;99.90;;;;;;5018193;28;20394;-84
2021/08/15 00:21:36;;;;;;;12.15;6.72;;;15.50;99.90;;;;;;5014405;28;20028;-84
2021/08/15 00:24:03;;;;;;;10.93;6.38;;;15.50;99.90;;;;;;5010083;28;20521;-85
2021/08/15 00:26:29;;;;;;;9.13;6.05;;;15.60;99.90;;;;;;5015951;28;20037;-84
2021/08/15 00:28:54;;;;;;;14.10;7.22;;;15.60;99.90;;;;;;5018761;28;20030;-84
2021/08/15 00:31:20;;;;;;;12.27;6.10;;;15.60;99.90;;;;;;5012158;28;20032;-84
2021/08/15 00:33:46;;;;;;;12.63;6.68;;;15.70;99.90;;;;;;5019140;28;20548;-84
2021/08/15 00:36:11;;;;;;;11.57;5.70;;;15.60;99.90;;;;;;5004291;28;20035;-84
2021/08/15 00:38:37;;;;;;;12.80;6.38;;;15.70;99.90;;;;;;5016519;28;20056;-84
2021/08/15 00:41:02;;;;;;;12.73;6.22;;;15.70;99.90;;;;;;5014297;28;20028;-84
2021/08/15 00:43:30;;;;;;;11.38;6.10;;;15.70;99.90;;;;;;5009575;28;20467;-84
2021/08/15 00:45:56;;;;;;;13.80;7.30;;;15.60;99.90;;;;;;5013837;28;20061;-85
2021/08/15 00:48:21;;;;;;;14.20;7.63;;;15.60;99.90;;;;;;5016511;28;20034;-84
2021/08/15 00:50:47;;;;;;;18.17;7.47;;;15.60;99.90;;;;;;5021905;28;20569;-84
2021/08/15 00:53:12;;;;;;;12.80;7.00;;;15.60;99.90;;;;;;5017471;28;20034;-85
2021/08/15 00:55:38;;;;;;;15.07;7.28;;;15.60;99.90;;;;;;5008720;28;20033;-84
2021/08/15 00:58:05;;;;;;;13.40;7.05;;;15.50;99.90;;;;;;5007768;28;20026;-84
2021/08/15 01:00:32;;;;;;;15.80;7.00;;;15.50;99.90;;;;;;5013662;28;20064;-85
2021/08/15 01:02:59;;;;;;;13.55;6.47;;;15.50;99.90;;;;;;5012561;28;20115;-85
2021/08/15 01:05:25;;;;;;;12.10;7.22;;;15.50;99.90;;;;;;5010840;28;20132;-85
2021/08/15 01:07:50;;;;;;;11.90;7.60;;;15.40;99.90;;;;;;5007099;28;20121;-85
2021/08/15 01:10:17;;;;;;;13.88;6.90;;;15.50;99.90;;;;;;5012620;28;20081;-85
2021/08/15 01:12:46;;;;;;;10.27;6.88;;;15.40;99.90;;;;;;5005545;28;20077;-85
2021/08/15 01:15:12;;;;;;;17.33;8.77;;;15.40;99.90;;;;;;5011892;28;20471;-85
2021/08/15 01:17:39;;;;;;;12.32;7.05;;;15.40;99.90;;;;;;5014573;28;20026;-84
2021/08/15 01:20:05;;;;;;;14.27;7.35;;;15.40;99.90;;;;;;5011611;28;20033;-85
2021/08/15 01:22:38;;;;;;;12.88;6.68;;;15.40;99.90;;;;;;5010630;28;20040;-85
2021/08/15 01:25:06;;;;;;;14.15;7.97;;;15.40;99.90;;;;;;5013167;28;20022;-85
2021/08/15 01:27:40;;;;;;;14.25;7.78;;;15.40;99.90;;;;;;5008922;28;20025;-84
2021/08/15 01:30:07;;;;;;;15.25;8.25;;;15.40;99.90;;;;;;5012089;28;20094;-85
2021/08/15 01:32:33;;;;;;;14.15;7.22;;;15.40;99.90;;;;;;5008242;28;20026;-85
2021/08/15 01:35:02;;;;;;;13.30;7.07;;;15.40;99.90;;;;;;5014541;28;20041;-85
2021/08/15 01:37:28;;;;;;;17.45;7.47;;;15.40;99.90;;;;;;5007766;28;20073;-85
2021/08/15 01:39:54;;;;;;;13.95;7.43;;;15.40;99.90;;;;;;5003112;28;20026;-85
2021/08/15 01:42:20;;;;;;;13.43;7.20;;;15.40;99.90;;;;;;5005059;28;20034;-85
2021/08/15 01:44:45;;;;;;;15.02;8.57;;;15.30;99.90;;;;;;5004795;28;20049;-85
2021/08/15 01:47:11;;;;;;;16.30;8.13;;;15.30;99.90;;;;;;5006401;28;20030;-85
2021/08/15 01:49:36;;;;;;;16.42;8.13;;;15.30;99.90;;;;;;5013637;28;20029;-85
2021/08/15 01:52:02;;;;;;;13.15;7.65;;;15.30;99.90;;;;;;5010505;28;20145;-85
2021/08/15 01:54:28;;;;;;;12.70;7.22;;;15.20;99.90;;;;;;5004390;28;20030;-85
2021/08/15 01:56:54;;;;;;;14.07;8.68;;;15.20;99.90;;;;;;5008049;28;20041;-85
2021/08/15 01:59:19;;;;;;;12.80;7.43;;;15.20;99.90;;;;;;5008437;28;20026;-85
2021/08/15 02:01:45;;;;;;;12.20;7.88;;;15.10;99.90;;;;;;5010653;28;20497;-85
2021/08/15 02:04:12;;;;;;;13.80;7.72;;;15.10;99.90;;;;;;5009119;28;20022;-85
2021/08/15 02:06:37;;;;;;;15.95;8.80;;;15.10;99.90;;;;;;5011229;28;20030;-85
2021/08/15 02:09:03;;;;;;;15.75;9.27;;;15.10;99.90;;;;;;5009925;28;20068;-85
2021/08/15 02:11:28;;;;;;;17.23;8.65;;;15.00;99.90;;;;;;5003224;28;20057;-85
2021/08/15 02:13:54;;;;;;;13.52;8.13;;;15.00;99.90;;;;;;5008267;28;20049;-85
2021/08/15 02:16:19;;;;;;;15.02;8.43;;;15.00;99.90;;;;;;4995533;28;20035;-84
2021/08/15 02:18:45;;;;;;;15.50;9.05;;;14.90;99.90;;;;;;5009503;28;20038;-85
2021/08/15 02:21:11;;;;;;;14.90;8.18;;;14.90;99.90;;;;;;5003156;28;20173;-85
2021/08/15 02:23:37;;;;;;;16.02;9.13;;;14.90;99.90;;;;;;5004877;28;20546;-85
2021/08/15 02:26:02;;;;;;;17.95;9.27;;;14.90;99.90;;;;;;5007237;28;20742;-85
2021/08/15 02:28:28;;;;;;;13.00;7.85;;;14.80;99.90;;;;;;5009131;28;20018;-85
2021/08/15 02:30:53;;;;;;;14.73;9.13;;;14.80;99.90;;;;;;5011155;28;20038;-84
2021/08/15 02:33:19;;;;;;;15.70;9.45;;;14.80;99.90;;;;;;5011208;28;20025;-85
2021/08/15 02:35:45;;;;;;;15.48;9.35;;;14.80;99.90;;;;;;5002095;28;20121;-85
2021/08/15 02:38:11;;;;;;;18.67;9.27;;;14.80;99.90;;;;;;5001458;28;20026;-85
2021/08/15 02:40:36;;;;;;;15.27;8.93;;;14.70;99.90;;;;;;5007854;28;20030;-85
2021/08/15 02:43:02;;;;;;;16.88;8.18;;;14.70;99.90;;;;;;5008095;28;20029;-85
2021/08/15 02:45:28;;;;;;;16.23;8.73;;;14.70;99.90;;;;;;4997920;28;20088;-85
2021/08/15 02:47:54;;;;;;;18.90;8.50;;;14.60;99.90;;;;;;5000088;28;20384;-85
2021/08/15 02:50:20;;;;;;;16.45;9.48;;;14.60;99.90;;;;;;5005728;28;20061;-85
2021/08/15 02:52:46;;;;;;;19.92;10.48;;;14.50;99.90;;;;;;5001878;28;20037;-84
2021/08/15 02:55:12;;;;;;;16.33;9.60;;;14.60;99.90;;;;;;5003302;28;20038;-85
2021/08/15 02:57:38;;;;;;;15.75;8.85;;;14.50;99.90;;;;;;5004709;28;20037;-85
2021/08/15 03:00:06;;;;;;;14.98;8.75;;;14.50;99.90;;;;;;5008588;28;20026;-85
2021/08/15 03:02:31;;;;;;;18.25;9.15;;;14.50;99.90;;;;;;5004168;28;20048;-84
2021/08/15 03:04:57;;;;;;;15.90;8.85;;;14.50;99.90;;;;;;5010956;28;20174;-85
2021/08/15 03:07:23;;;;;;;17.42;9.13;;;14.40;99.90;;;;;;5011615;28;20121;-85
2021/08/15 03:09:49;;;;;;;17.00;9.55;;;14.40;99.90;;;;;;5013034;28;20072;-85
2021/08/15 03:12:14;;;;;;;17.90;10.75;;;14.40;99.90;;;;;;5005986;28;20026;-85
2021/08/15 03:14:40;;;;;;;18.02;10.30;;;14.40;99.90;;;;;;5011120;28;20496;-86
2021/08/15 03:17:08;;;;;;;16.25;10.18;;;14.40;99.90;;;;;;5005985;28;20111;-86
2021/08/15 03:19:34;;;;;;;18.38;10.80;;;14.40;99.90;;;;;;5011846;28;20482;-87
2021/08/15 03:22:00;;;;;;;18.98;9.88;;;14.40;99.90;;;;;;5006888;28;20429;-86
2021/08/15 03:24:25;;;;;;;18.52;10.23;;;14.30;99.90;;;;;;4999497;28;20030;-86
2021/08/15 03:26:51;;;;;;;16.10;9.57;;;14.30;99.90;;;;;;5003982;28;20478;-86
2021/08/15 03:29:17;;;;;;;21.98;12.07;;;14.20;99.90;;;;;;5008665;28;20458;-86
2021/08/15 03:31:45;;;;;;;21.75;11.77;;;14.20;99.90;;;;;;5005220;28;20525;-86
2021/08/15 03:34:11;;;;;;;22.30;11.80;;;14.20;99.90;;;;;;5003577;28;20050;-86
2021/08/15 03:36:37;;;;;;;15.48;10.05;;;14.10;99.90;;;;;;5008839;28;20526;-86
2021/08/15 03:39:04;;;;;;;20.08;10.98;;;14.10;99.90;;;;;;5007069;28;20033;-86
2021/08/15 03:41:29;;;;;;;13.18;8.32;;;14.10;99.90;;;;;;5006321;28;20033;-85
2021/08/15 03:43:55;;;;;;;17.23;10.45;;;14.10;99.90;;;;;;5004520;28;20030;-86
2021/08/15 03:46:21;;;;;;;20.95;9.95;;;14.10;99.90;;;;;;5009562;28;20029;-86
2021/08/15 03:48:47;;;;;;;16.33;9.90;;;14.00;99.90;;;;;;5008357;28;20038;-86
2021/08/15 03:51:12;;;;;;;17.27;9.80;;;14.00;99.90;;;;;;5008946;28;20036;-86
2021/08/15 03:53:38;;;;;;;20.13;10.27;;;14.10;99.90;;;;;;5000441;28;20113;-86
2021/08/15 03:56:03;;;;;;;18.65;10.05;;;14.00;99.90;;;;;;5013309;28;20088;-86
2021/08/15 03:58:29;;;;;;;17.77;9.32;;;14.00;99.90;;;;;;5012808;28;20026;-86
2021/08/15 04:00:56;;;;;;;19.10;9.70;;;14.00;99.90;;;;;;5006158;28;20513;-85
2021/08/15 04:03:22;;;;;;;18.60;10.13;;;14.00;99.90;;;;;;5010413;28;20141;-86
2021/08/15 04:05:47;;;;;;;21.23;11.05;;;14.00;99.90;;;;;;5008743;28;20088;-86
2021/08/15 04:08:13;;;;;;;20.05;10.68;;;14.00;99.90;;;;;;5005454;28;20486;-86
2021/08/15 04:10:39;;;;;;;15.93;9.85;;;14.00;99.90;;;;;;5011857;28;20394;-87
2021/08/15 04:13:04;;;;;;;17.08;9.65;;;14.10;99.90;;;;;;5012965;28;20026;-86
2021/08/15 04:15:30;;;;;;;16.95;9.25;;;14.10;99.90;;;;;;5006628;28;20038;-86
2021/08/15 04:17:56;;;;;;;16.08;10.32;;;14.10;99.90;;;;;;5012912;28;20034;-86
2021/08/15 04:20:22;;;;;;;15.63;8.50;;;14.10;99.90;;;;;;5008704;28;20037;-86
2021/08/15 04:22:48;;;;;;;12.43;7.45;;;14.10;99.90;;;;;;5006221;28;20026;-85
2021/08/15 04:25:14;;;;;;;12.18;7.45;;;14.10;99.90;;;;;;5019385;28;20033;-86
2021/08/15 04:27:40;;;;;;;13.35;7.75;;;14.10;99.90;;;;;;5005221;28;20025;-85
2021/08/15 04:30:07;;;;;;;15.20;9.05;;;14.00;99.90;;;;;;5006006;28;20030;-86
2021/08/15 04:32:33;;;;;;;11.57;7.30;;;14.10;99.90;;;;;;5009663;28;20038;-86
2021/08/15 04:34:58;;;;;;;16.10;8.95;;;14.10;99.90;;;;;;5003845;28;20041;-86
2021/08/15 04:37:24;;;;;;;14.38;8.40;;;14.10;99.90;;;;;;5010251;28;20044;-86
2021/08/15 04:39:50;;;;;;;18.58;9.57;;;14.10;99.90;;;;;;5008214;28;20112;-86
2021/08/15 04:42:15;;;;;;;18.20;10.10;;;14.10;99.90;;;;;;5007008;28;20030;-85
2021/08/15 04:44:41;;;;;;;17.58;11.45;;;14.20;99.90;;;;;;5012859;28;20037;-86
2021/08/15 04:47:06;;;;;;;18.92;12.25;;;14.20;99.90;;;;;;5007988;28;20065;-85
2021/08/15 04:49:32;;;;;;;21.33;11.48;;;14.30;99.90;;;;;;5002204;28;20517;-86
2021/08/15 04:51:57;;;;;;;18.92;11.00;;;14.30;99.90;;;;;;5010191;28;20034;-86
2021/08/15 04:54:26;;;;;;;19.38;11.25;;;14.30;99.90;;;;;;5007454;28;20038;-86
2021/08/15 04:56:52;;;;;;;27.60;14.15;;;14.40;99.90;;;;;;5005889;28;20461;-87
2021/08/15 04:59:18;;;;;;;20.50;11.30;;;14.50;99.90;;;;;;5009028;28;20014;-86
2021/08/15 05:01:44;;;;;;;26.63;12.90;;;14.50;99.90;;;;;;5007267;28;20497;-86
2021/08/15 05:04:09;;;;;;;21.48;13.07;;;14.60;99.90;;;;;;5004691;28;20072;-86
2021/08/15 05:06:35;;;;;;;26.50;13.95;;;14.60;99.90;;;;;;5003339;28;20112;-86
2021/08/15 05:09:01;;;;;;;21.85;13.90;;;14.70;99.90;;;;;;5002863;28;20030;-86
2021/08/15 05:11:26;;;;;;;21.23;14.43;;;14.80;99.90;;;;;;5003410;28;20068;-86
2021/08/15 05:13:52;;;;;;;24.15;14.60;;;14.80;99.90;;;;;;5009357;28;20026;-86
2021/08/15 05:16:18;;;;;;;27.67;14.50;;;14.90;99.90;;;;;;5007928;28;20034;-86
2021/08/15 05:18:43;;;;;;;24.15;13.80;;;15.00;99.90;;;;;;5009099;28;20042;-85
2021/08/15 05:21:09;;;;;;;22.27;14.95;;;15.00;99.90;;;;;;5007693;28;20026;-85
2021/08/15 05:23:34;;;;;;;27.38;16.00;;;15.10;99.90;;;;;;5009800;28;20390;-86
2021/08/15 05:26:00;;;;;;;23.50;16.38;;;15.20;99.90;;;;;;5004618;28;20042;-86
2021/08/15 05:28:26;;;;;;;28.38;16.50;;;15.20;99.90;;;;;;5007176;28;20033;-86
2021/08/15 05:30:51;;;;;;;26.15;16.75;;;15.30;99.90;;;;;;5009716;28;20046;-86
2021/08/15 05:33:17;;;;;;;22.17;15.05;;;15.30;99.90;;;;;;5003499;28;20490;-86
2021/08/15 05:35:42;;;;;;;23.10;16.27;;;15.30;99.90;;;;;;5006796;28;20084;-86
2021/08/15 05:38:08;;;;;;;27.25;17.02;;;15.40;99.90;;;;;;5006581;28;20030;-86
2021/08/15 05:40:33;;;;;;;27.73;16.55;;;15.40;99.90;;;;;;5005371;28;20034;-86
2021/08/15 05:42:59;;;;;;;28.30;16.80;;;15.50;99.90;;;;;;5004750;28;20076;-86
2021/08/15 05:45:25;;;;;;;28.67;18.55;;;15.50;99.90;;;;;;5006812;28;20037;-86
2021/08/15 05:47:50;;;;;;;24.83;17.90;;;15.60;99.90;;;;;;5004290;28;20487;-86
2021/08/15 05:50:16;;;;;;;28.08;17.15;;;15.60;99.90;;;;;;5001122;28;20486;-86
2021/08/15 05:52:41;;;;;;;25.48;16.75;;;15.70;99.90;;;;;;5004800;28;20026;-86
2021/08/15 05:55:07;;;;;;;25.98;18.35;;;15.70;99.90;;;;;;5004776;28;20122;-86
2021/08/15 05:57:33;;;;;;;26.45;17.77;;;15.70;99.90;;;;;;4997242;28;20034;-86
2021/08/15 05:59:59;;;;;;;23.38;17.98;;;15.80;99.90;;;;;;5011165;28;20026;-86
2021/08/15 06:02:25;;;;;;;30.00;19.17;;;15.80;99.90;;;;;;5013402;28;20041;-86
2021/08/15 06:04:50;;;;;;;28.33;17.48;;;15.90;99.90;;;;;;5002859;28;20033;-87
2021/08/15 06:07:16;;;;;;;22.17;17.38;;;16.00;99.90;;;;;;5013448;28;20049;-86
2021/08/15 06:09:41;;;;;;;28.85;19.80;;;16.10;99.90;;;;;;5008006;28;20030;-85
2021/08/15 06:12:07;;;;;;;27.33;17.75;;;16.20;99.90;;;;;;5011831;28;20112;-87
2021/08/15 06:14:33;;;;;;;24.33;17.63;;;16.20;99.90;;;;;;5012099;28;20053;-86
2021/08/15 06:16:59;;;;;;;24.73;17.58;;;16.30;99.90;;;;;;5005670;28;20034;-84
2021/08/15 06:19:24;;;;;;;27.17;17.27;;;16.40;99.90;;;;;;5014335;28;20022;-86
2021/08/15 06:21:50;;;;;;;26.95;17.55;;;16.60;99.90;;;;;;5014102;28;20390;-86
2021/08/15 06:24:16;;;;;;;29.02;17.65;;;16.70;99.90;;;;;;5012755;28;20080;-86
2021/08/15 06:26:41;;;;;;;25.60;17.25;;;16.80;99.90;;;;;;5013204;28;20737;-87
2021/08/15 06:29:07;;;;;;;25.10;16.70;;;17.00;99.90;;;;;;5023844;28;20030;-88
2021/08/15 06:31:32;;;;;;;28.58;17.70;;;17.00;99.90;;;;;;5015776;28;20093;-88
2021/08/15 06:33:58;;;;;;;28.77;17.00;;;17.10;99.90;;;;;;5010580;28;20025;-88
2021/08/15 06:36:24;;;;;;;27.92;17.58;;;17.20;99.90;;;;;;5013073;28;20033;-88
2021/08/15 06:38:50;;;;;;;22.35;17.13;;;17.30;99.90;;;;;;5011087;28;20034;-88
2021/08/15 06:41:16;;;;;;;24.25;16.80;;;17.50;99.90;;;;;;5007636;28;20038;-87
2021/08/15 06:43:42;;;;;;;21.48;16.15;;;17.70;99.90;;;;;;5012531;28;20500;-88
2021/08/15 06:46:07;;;;;;;20.30;14.48;;;17.90;99.90;;;;;;5013657;28;20052;-87
2021/08/15 06:48:33;;;;;;;25.02;14.23;;;18.20;99.90;;;;;;5004969;28;20032;-86
2021/08/15 06:50:59;;;;;;;17.58;13.55;;;18.30;99.90;;;;;;5009059;28;20088;-86
2021/08/15 06:53:29;;;;;;;22.08;14.77;;;18.40;99.90;;;;;;5004746;28;20061;-86
2021/08/15 06:55:58;;;;;;;17.13;13.60;;;18.50;99.70;;;;;;5012717;28;20061;-86
2021/08/15 06:58:24;;;;;;;20.40;14.45;;;18.70;99.40;;;;;;5008714;28;20085;-86
2021/08/15 07:00:50;;;;;;;23.98;15.13;;;18.70;99.20;;;;;;5005740;28;20030;-86
2021/08/15 07:03:15;;;;;;;20.60;13.85;;;18.80;99.00;;;;;;5008608;28;20398;-86
2021/08/15 07:05:41;;;;;;;17.98;12.82;;;18.90;98.90;;;;;;5000706;28;20433;-86
2021/08/15 07:08:06;;;;;;;18.40;11.73;;;19.10;98.60;;;;;;5001457;28;20030;-86
2021/08/15 07:10:32;;;;;;;22.20;13.07;;;19.20;98.30;;;;;;5008505;28;20026;-86
2021/08/15 07:12:58;;;;;;;21.70;11.60;;;19.30;98.10;;;;;;5012069;28;20076;-86
2021/08/15 07:15:28;;;;;;;16.75;11.38;;;19.40;97.60;;;;;;5006225;28;20053;-86
2021/08/15 07:17:54;;;;;;;17.65;11.68;;;19.60;97.20;;;;;;4998509;28;20026;-87
2021/08/15 07:20:20;;;;;;;17.98;10.05;;;19.60;97.10;;;;;;5005117;28;20037;-89
2021/08/15 07:22:47;;;;;;;16.27;10.43;;;19.80;96.80;;;;;;5000222;28;20030;-88
2021/08/15 07:25:13;;;;;;;18.55;11.10;;;19.90;96.20;;;;;;5006968;28;20041;-88
2021/08/15 07:27:39;;;;;;;14.98;9.23;;;20.00;96.00;;;;;;5005051;28;20101;-88
2021/08/15 07:30:05;;;;;;;12.77;8.63;;;20.20;95.60;;;;;;4999924;28;20122;-88
2021/08/15 07:32:31;;;;;;;15.77;8.90;;;20.20;95.20;;;;;;5010161;28;20018;-89
2021/08/15 07:34:57;;;;;;;12.70;8.35;;;20.30;94.90;;;;;;5002865;28;20045;-86
2021/08/15 07:37:22;;;;;;;13.75;8.02;;;20.40;94.60;;;;;;4999969;28;20097;-86
2021/08/15 07:39:48;;;;;;;14.32;8.88;;;20.40;94.20;;;;;;5001529;28;20383;-86
2021/08/15 07:42:13;;;;;;;17.08;8.45;;;20.30;94.00;;;;;;5005446;28;20026;-86
2021/08/15 07:44:39;;;;;;;12.75;7.80;;;20.30;94.20;;;;;;4995057;28;20022;-86
2021/08/15 07:47:05;;;;;;;13.75;7.68;;;20.40;94.10;;;;;;5005533;28;20044;-86
2021/08/15 07:49:31;;;;;;;12.15;7.85;;;20.40;93.70;;;;;;5005221;28;20018;-86
2021/08/15 07:51:56;;;;;;;13.77;7.43;;;20.50;93.50;;;;;;5001284;28;20121;-86
2021/08/15 07:54:22;;;;;;;10.75;6.72;;;20.60;93.30;;;;;;5003139;28;20451;-85
2021/08/15 07:56:48;;;;;;;11.13;5.97;;;20.80;93.10;;;;;;5005723;28;20041;-86
2021/08/15 07:59:14;;;;;;;9.27;5.03;;;21.00;92.90;;;;;;4997136;28;20398;-85
2021/08/15 08:01:40;;;;;;;9.77;4.65;;;21.20;92.50;;;;;;5000214;28;20064;-85
2021/08/15 08:04:06;;;;;;;9.48;4.47;;;21.40;91.70;;;;;;5006401;28;20483;-86
2021/08/15 08:06:31;;;;;;;8.77;3.85;;;21.50;91.30;;;;;;5009489;28;20069;-86
2021/08/15 08:08:57;;;;;;;6.90;3.58;;;21.60;90.50;;;;;;5005406;28;20474;-86
2021/08/15 08:11:22;;;;;;;6.90;3.20;;;21.80;89.40;;;;;;5009348;28;20022;-85
2021/08/15 08:13:50;;;;;;;6.38;3.08;;;22.00;88.20;;;;;;5006807;28;20168;-85
2021/08/15 08:16:16;;;;;;;6.10;2.67;;;22.20;86.70;;;;;;5006409;28;20097;-86
2021/08/15 08:18:43;;;;;;;8.73;3.30;;;22.20;84.30;;;;;;5003860;28;20030;-86
2021/08/15 08:21:09;;;;;;;8.35;3.47;;;22.20;83.50;;;;;;5005046;28;20034;-86
2021/08/15 08:23:34;;;;;;;10.05;4.00;;;22.30;83.90;;;;;;5004195;28;20378;-85
2021/08/15 08:26:00;;;;;;;10.20;3.92;;;22.20;84.30;;;;;;5003872;28;20036;-86
2021/08/15 08:28:26;;;;;;;10.02;4.15;;;22.20;83.80;;;;;;5009383;28;20706;-87
2021/08/15 08:30:52;;;;;;;7.80;3.58;;;22.10;84.10;;;;;;5003197;28;20743;-87
2021/08/15 08:33:17;;;;;;;7.82;3.40;;;22.10;83.80;;;;;;5010401;28;20028;-86
2021/08/15 08:35:43;;;;;;;8.98;3.40;;;22.20;84.50;;;;;;5004290;28;20034;-85
2021/08/15 08:38:09;;;;;;;9.95;3.85;;;22.40;84.50;;;;;;5010235;28;20082;-85
2021/08/15 08:40:35;;;;;;;8.10;3.47;;;22.50;84.20;;;;;;5012307;28;20026;-86
2021/08/15 08:43:00;;;;;;;9.73;4.32;;;22.50;84.20;;;;;;5009918;28;20401;-86
2021/08/15 08:45:27;;;;;;;10.02;3.25;;;22.50;84.40;;;;;;5005231;28;20454;-86
2021/08/15 08:47:54;;;;;;;7.95;3.85;;;22.50;84.90;;;;;;5007384;28;20076;-85
2021/08/15 08:50:22;;;;;;;8.20;3.42;;;22.50;84.10;;;;;;5000506;28;20088;-86
2021/08/15 08:52:48;;;;;;;8.07;3.28;;;22.50;82.70;;;;;;5008451;28;20026;-86
2021/08/15 08:55:14;;;;;;;7.70;3.42;;;22.40;82.40;;;;;;5006984;28;20139;-86
2021/08/15 08:57:40;;;;;;;6.05;2.80;;;22.40;82.30;;;;;;5003367;28;20026;-86
2021/08/15 09:00:07;;;;;;;6.28;2.60;;;22.40;82.60;;;;;;5004638;28;20066;-86
2021/08/15 09:02:36;;;;;;;7.85;2.92;;;22.40;81.80;;;;;;5003040;28;20037;-84
2021/08/15 09:05:03;;;;;;;8.25;3.85;;;22.40;82.00;;;;;;5001246;28;20026;-85
2021/08/15 09:07:34;;;;;;;5.40;2.72;;;22.30;82.30;;;;;;5002564;28;20055;-85
2021/08/15 09:10:01;;;;;;;6.43;2.50;;;22.30;82.90;;;;;;5004730;28;20216;-85
2021/08/15 09:12:33;;;;;;;8.10;3.15;;;22.40;82.80;;;;;;5006337;28;20382;-84
2021/08/15 09:15:09;;;;;;;10.73;2.88;;;22.70;81.10;;;;;;5005411;28;20033;-85
2021/08/15 09:17:36;;;;;;;6.18;2.22;;;22.80;80.50;;;;;;5006335;28;20111;-85
2021/08/15 09:20:02;;;;;;;6.90;2.33;;;22.90;79.70;;;;;;5005221;28;20026;-85
2021/08/15 09:22:30;;;;;;;7.03;3.00;;;23.10;79.70;;;;;;5010103;28;20537;-84
2021/08/15 09:25:00;;;;;;;4.95;2.17;;;23.30;79.70;;;;;;5003640;28;20027;-85
2021/08/15 09:27:34;;;;;;;5.53;1.48;;;23.40;78.80;;;;;;5004124;28;20065;-84
2021/08/15 09:30:26;;;;;;;3.65;1.45;;;23.40;77.50;;;;;;5008192;28;20032;-84
2021/08/15 09:32:57;;;;;;;4.65;1.83;;;23.50;77.40;;;;;;5006488;28;20058;-84
2021/08/15 09:35:30;;;;;;;6.32;2.05;;;23.60;76.30;;;;;;5013149;28;20022;-84
2021/08/15 09:38:04;;;;;;;6.22;1.60;;;23.50;75.60;;;;;;5010107;28;20037;-84
2021/08/15 09:40:32;;;;;;;9.40;2.72;;;23.50;75.40;;;;;;5000689;28;20052;-84
2021/08/15 09:42:58;;;;;;;5.20;2.08;;;23.60;75.30;;;;;;5013450;28;20034;-84
2021/08/15 09:45:32;;;;;;;4.63;1.88;;;23.60;75.40;;;;;;5013585;28;20018;-84
2021/08/15 09:48:24;;;;;;;3.85;1.95;;;23.70;75.50;;;;;;5000712;28;20486;-84
2021/08/15 09:51:19;;;;;;;6.90;1.95;;;23.90;75.60;;;;;;5008486;28;20022;-84
2021/08/15 09:54:00;;;;;;;4.82;1.90;;;24.00;74.60;;;;;;5008467;28;20053;-84
2021/08/15 09:56:38;;;;;;;5.03;1.88;;;23.90;75.20;;;;;;5010122;28;20052;-85
2021/08/15 09:59:22;;;;;;;6.30;2.53;;;23.80;75.80;;;;;;5007149;28;20490;-84
2021/08/15 10:01:55;;;;;;;5.88;2.13;;;23.90;75.30;;;;;;5009941;28;20058;-85
2021/08/15 10:04:23;;;;;;;6.22;2.78;;;24.00;75.30;;;;;;5008495;28;20121;-85
2021/08/15 10:06:51;;;;;;;6.00;2.88;;;24.10;73.80;;;;;;5007820;28;20046;-85
2021/08/15 10:09:19;;;;;;;3.70;2.28;;;24.40;72.40;;;;;;5012853;28;20026;-85
2021/08/15 10:11:46;;;;;;;4.07;1.65;;;24.60;72.10;;;;;;4996204;28;20391;-85
2021/08/15 10:14:12;;;;;;;3.17;1.30;;;24.80;71.10;;;;;;5010203;28;20036;-85
2021/08/15 10:16:52;;;;;;;4.97;1.52;;;25.00;70.20;;;;;;5013746;28;20060;-85
2021/08/15 10:19:28;;;;;;;5.00;1.30;;;25.30;69.50;;;;;;5010329;28;20045;-85
2021/08/15 10:21:54;;;;;;;5.32;1.88;;;25.30;67.50;;;;;;5008789;28;20121;-84
2021/08/15 10:24:19;;;;;;;4.65;1.55;;;25.20;66.70;;;;;;5013298;28;20462;-86
2021/08/15 10:26:47;;;;;;;5.38;1.70;;;25.20;66.50;;;;;;5010922;28;20096;-86
2021/08/15 10:29:48;;;;;;;6.88;1.40;;;25.10;66.10;;;;;;5006115;28;20092;-86
2021/08/15 10:32:18;;;;;;;3.92;1.42;;;25.00;65.70;;;;;;4937180;29;20535;-83
2021/08/15 10:34:50;;;;;;;2.75;1.00;;;25.00;66.50;;;;;;4984982;28;20113;-83
2021/08/15 10:37:27;;;;;;;5.80;1.33;;;25.00;67.30;;;;;;5006932;28;20093;-83
2021/08/15 10:40:04;;;;;;;6.38;1.40;;;25.10;67.30;;;;;;5005435;28;20113;-83
2021/08/15 10:42:39;;;;;;;2.53;1.10;;;25.20;67.90;;;;;;5011516;28;20029;-83
2021/08/15 10:45:19;;;;;;;3.30;1.02;;;25.30;67.30;;;;;;5013016;28;20068;-83
2021/08/15 10:48:04;;;;;;;3.83;1.15;;;25.40;67.80;;;;;;5009964;28;20037;-83
2021/08/15 10:50:48;;;;;;;4.78;1.33;;;25.40;68.00;;;;;;5016599;28;20030;-83
2021/08/15 10:53:32;;;;;;;2.67;0.77;;;25.50;68.30;;;;;;5009806;28;20037;-84
2021/08/15 10:56:08;;;;;;;1.95;0.70;;;25.60;67.90;;;;;;5009429;28;20101;-84
2021/08/15 10:58:46;;;;;;;2.17;0.65;;;25.50;66.00;;;;;;5011512;28;20057;-85
2021/08/15 11:01:19;;;;;;;2.65;0.75;;;25.50;65.60;;;;;;5005193;28;20026;-85
2021/08/15 11:03:51;;;;;;;2.85;0.80;;;25.50;65.70;;;;;;5003070;28;20113;-85
2021/08/15 11:06:32;;;;;;;4.10;0.90;;;25.60;66.90;;;;;;5008235;28;20045;-84
2021/08/15 11:09:00;;;;;;;3.72;0.82;;;25.70;67.00;;;;;;5001138;28;20030;-85
2021/08/15 11:11:31;;;;;;;2.30;0.82;;;25.80;65.60;;;;;;5006456;28;20399;-85
2021/08/15 11:14:18;;;;;;;3.03;0.70;;;25.80;64.10;;;;;;5008310;28;20029;-85
2021/08/15 11:16:46;;;;;;;3.25;0.80;;;26.00;64.30;;;;;;5013850;28;20037;-85
2021/08/15 11:19:11;;;;;;;2.38;0.80;;;26.10;63.70;;;;;;5007946;28;20034;-85
2021/08/15 11:22:11;;;;;;;2.97;0.90;;;26.10;63.40;;;;;;4992075;28;20041;-85
2021/08/15 11:24:47;;;;;;;2.67;0.88;;;26.20;64.40;;;;;;5001749;28;20073;-86
2021/08/15 11:27:15;;;;;;;2.42;1.13;;;26.40;65.00;;;;;;5010875;28;20022;-86
2021/08/15 11:29:43;;;;;;;2.60;0.80;;;26.60;63.00;;;;;;5004520;28;20474;-87
2021/08/15 11:32:21;;;;;;;3.20;0.77;;;26.70;63.20;;;;;;5006529;28;20034;-86
2021/08/15 11:34:51;;;;;;;2.47;0.90;;;26.90;62.60;;;;;;5004554;28;20387;-86
2021/08/15 11:37:29;;;;;;;3.92;1.10;;;27.10;63.00;;;;;;5011831;28;20061;-86
2021/08/15 11:39:55;;;;;;;2.60;0.95;;;27.10;61.50;;;;;;5003873;28;20034;-85
2021/08/15 11:42:26;;;;;;;2.53;0.90;;;27.10;61.60;;;;;;5011982;28;20026;-86
2021/08/15 11:44:55;;;;;;;4.38;0.90;;;27.20;61.70;;;;;;5007856;28;20033;-86
2021/08/15 11:47:24;;;;;;;2.67;0.90;;;27.30;61.80;;;;;;5004344;28;20557;-86
2021/08/15 11:49:50;;;;;;;3.28;1.02;;;27.10;61.40;;;;;;5005648;28;20080;-83
2021/08/15 11:52:22;;;;;;;2.15;0.70;;;27.00;61.90;;;;;;5001991;28;20026;-85
2021/08/15 11:54:50;;;;;;;2.95;0.70;;;27.00;62.70;;;;;;5009264;28;20032;-87
2021/08/15 11:57:15;;;;;;;2.03;0.80;;;26.90;62.40;;;;;;5010499;28;20101;-84
2021/08/15 11:59:44;;;;;;;2.05;0.80;;;26.90;62.80;;;;;;5010571;28;20490;-83
2021/08/15 12:02:16;;;;;;;2.05;0.70;;;27.00;63.40;;;;;;5008303;28;20030;-84
2021/08/15 12:04:44;;;;;;;2.30;0.70;;;26.90;63.40;;;;;;5008183;28;20022;-84
2021/08/15 12:07:10;;;;;;;3.33;1.05;;;26.80;64.00;;;;;;5003172;28;20453;-83
2021/08/15 12:09:35;;;;;;;2.60;0.90;;;26.80;64.50;;;;;;5003923;28;20018;-83
2021/08/15 12:12:04;;;;;;;3.08;0.77;;;26.90;63.90;;;;;;5004817;28;20045;-84
2021/08/15 12:14:40;;;;;;;2.63;0.77;;;26.90;64.40;;;;;;5010407;28;20029;-82
2021/08/15 12:17:06;;;;;;;2.42;0.80;;;26.70;64.20;;;;;;5001920;28;20101;-83
2021/08/15 12:19:33;;;;;;;2.35;0.93;;;26.60;65.10;;;;;;5006278;28;20120;-84
2021/08/15 12:22:00;;;;;;;2.28;0.85;;;26.70;64.80;;;;;;4999569;28;20026;-83
2021/08/15 12:24:28;;;;;;;2.83;0.80;;;26.70;64.30;;;;;;5001154;28;20037;-83
2021/08/15 12:26:55;;;;;;;1.45;0.50;;;26.60;64.20;;;;;;5010914;28;20026;-83
2021/08/15 12:29:34;;;;;;;2.97;0.60;;;26.60;64.50;;;;;;5005939;28;20026;-83
2021/08/15 12:32:03;;;;;;;2.03;0.63;;;26.50;64.60;;;;;;5007640;28;20105;-83
2021/08/15 12:34:29;;;;;;;2.17;0.70;;;26.50;64.50;;;;;;5005909;28;20488;-83
2021/08/15 12:36:56;;;;;;;2.05;0.60;;;26.50;64.70;;;;;;5002758;28;20044;-83
2021/08/15 12:39:30;;;;;;;2.58;0.85;;;26.70;64.60;;;;;;5008816;28;20022;-84
2021/08/15 12:42:04;;;;;;;3.38;0.60;;;26.70;64.70;;;;;;5013604;28;20026;-84